Latest Weather Observations for Oodnadatta

IDS60801

Issued at 8:41 pm CDT Sunday 24 January 2021 (issued every 10 minutes, with the page automatically refreshed every 10 minutes)

About weather observations | Map of weather stations | Latest weather observations for SA | Other Formats
Station Details ID: 017043 Name: OODNADATTA AIRPORT Lat: -27.56 Lon: 135.45 Height: 116.5 m
Data from the previous 72 hours. | See also: Recent months at Oodnadatta
Date/Time
CDT
Temp
°C
App
Temp
°C
Dew
Point
°C
Rel
Hum
%
Delta-T
°C
Wind Press
QNH
hPa
Press
MSL
hPa
Rain since
9am
mm
Dir  Spd
km/h
Gust
km/h
Spd
kts
Gust
kts
24/08:30pm 24.9 24.7 22.8 88 1.4 E 28 33 15 18 1002.3 1001.4 26.6
24/08:00pm 24.7 27.6 23.1 91 1.1 NE 13 20 7 11 1003.1 1002.2 25.6
24/07:30pm 23.9 24.8 23.4 97 0.3 NNE 24 39 13 21 1003.5 1002.6 24.0
24/07:00pm 25.0 23.7 22.1 84 1.9 NNE 32 43 17 23 1003.3 1002.4 22.0
24/06:30pm 26.4 23.7 23.3 83 2.1 NNE 43 61 23 33 1003.7 1002.8 21.8
24/06:07pm 28.3 27.3 23.0 73 3.6 NE 33 54 18 29 1003.0 1002.1 21.8
24/06:00pm 28.1 28.0 23.5 76 3.2 NE 30 41 16 22 1002.4 1001.5 21.8
24/05:48pm 28.9 26.5 22.6 69 4.3 NE 39 50 21 27 1002.3 1001.4 21.8
24/05:34pm 30.4 31.0 22.8 64 5.2 E 24 56 13 30 1002.0 1001.1 21.8
24/05:33pm 30.7 31.7 22.8 62 5.4 E 22 44 12 24 1002.1 1001.2 21.8
24/05:30pm 31.1 33.0 22.7 61 5.8 ESE 17 24 9 13 1001.6 1000.7 21.8
24/05:00pm 30.6 32.4 23.5 66 4.9 SE 20 24 11 13 1000.3 999.5 21.8
24/04:30pm 28.7 32.5 27.8 95 0.7 S 24 30 13 16 1000.9 1000.1 21.8
24/04:00pm 25.3 26.2 25.3 100 0.0 S 30 33 16 18 1001.9 1001.0 21.6
24/03:52pm 25.0 26.5 25.0 100 0.0 S 26 32 14 17 1002.5 1001.6 21.6
24/03:30pm 24.4 24.4 24.4 100 0.0 ENE 32 39 17 21 1004.5 1003.6 19.6
24/03:22pm 24.7 24.3 24.7 100 0.0 NNE 35 59 19 32 1004.9 1004.1 16.8
24/03:18pm 24.5 21.9 24.5 100 0.0 N 46 67 25 36 1004.8 1004.0 12.8
24/03:10pm 23.6 20.4 20.3 82 2.1 NW 37 67 20 36 1003.6 1002.7 2.8
24/03:08pm 27.8 25.9 20.9 66 4.6 NW 32 56 17 30 1003.7 1002.8 0.4
24/03:00pm 35.0 34.5 19.0 39 10.6 ESE 20 39 11 21 1002.4 1001.5 0.0
24/02:57pm 35.5 35.1 18.1 35 11.4 SE 17 39 9 21 1001.9 1001.0 0.0
24/02:30pm 36.9 38.2 17.5 32 12.7 ENE 7 15 4 8 1002.0 1001.1 0.0
24/02:00pm 37.3 35.5 17.8 31 12.8 W 24 37 13 20 1002.2 1001.3 0.0
24/01:57pm 37.8 36.7 17.2 29 13.4 W 19 37 10 20 1002.1 1001.2 0.0
24/01:30pm 38.3 38.7 14.8 25 14.9 W 6 17 3 9 1002.6 1001.7 0.0
24/01:00pm 37.5 36.9 14.7 25 14.3 N 11 17 6 9 1003.2 1002.3 0.0
24/12:30pm 37.3 35.9 14.6 26 14.3 NNW 15 20 8 11 1003.6 1002.7 0.0
24/12:00pm 37.1 34.9 14.4 26 14.2 NW 19 22 10 12 1003.8 1002.9 0.0
24/11:30am 36.7 34.2 14.1 26 14.1 NW 20 26 11 14 1003.9 1003.0 0.0
24/11:00am 36.7 33.8 12.2 23 14.8 NNW 19 22 10 12 1004.1 1003.2 0.0
24/10:30am 36.6 34.6 12.8 24 14.5 NNW 15 19 8 10 1004.0 1003.1 0.0
24/10:00am 36.4 34.3 11.3 22 15.0 N 13 19 7 10 1003.9 1003.0 0.0
24/09:30am 36.1 33.0 8.8 19 15.7 NNE 15 19 8 10 1004.0 1003.1 0.0
24/09:00am 35.0 30.4 5.4 16 16.1 NE 19 22 10 12 1003.9 1003.0 0.0
24/08:30am 34.2 28.5 2.9 14 16.3 NE 22 26 12 14 1003.7 1002.8 0.0
24/08:00am 33.9 26.8 1.6 13 16.3 NE 28 39 15 21 1003.4 1002.5 0.0
24/07:30am 33.7 27.4 1.5 13 16.3 NE 24 30 13 16 1003.0 1002.1 0.0
24/07:00am 33.8 26.4 1.6 13 16.3 NE 30 35 16 19 1002.6 1001.7 0.0
24/06:30am 33.8 26.6 0.5 12 16.6 NE 28 35 15 19 1002.3 1001.4 0.0
24/06:00am 33.6 27.1 0.3 12 16.5 NE 24 32 13 17 1002.2 1001.3 0.0
24/05:30am 33.5 27.6 -1.0 11 16.8 NE 20 24 11 13 1002.3 1001.4 0.0
24/05:00am 33.7 28.0 -0.8 11 16.8 NNE 19 26 10 14 1002.4 1001.5 0.0
24/04:30am 35.0 28.1 0.2 11 17.4 NE 26 32 14 17 1002.5 1001.6 0.0
24/04:00am 35.4 28.0 -0.8 10 17.8 ENE 28 37 15 20 1002.2 1001.3 0.0
24/03:30am 35.3 27.9 -0.9 10 17.8 ENE 28 35 15 19 1002.4 1001.5 0.0
24/03:00am 35.4 28.9 -2.3 9 18.2 ENE 22 28 12 15 1002.5 1001.6 0.0
24/02:30am 35.2 29.1 -2.4 9 18.0 ENE 20 24 11 13 1002.8 1001.9 0.0
24/02:00am 35.7 29.6 -2.0 9 18.2 ENE 20 24 11 13 1003.1 1002.2 0.0
24/01:30am 36.0 29.6 -1.8 9 18.4 ENE 22 26 12 14 1003.5 1002.6 0.0
24/01:00am 36.5 29.8 -1.4 9 18.6 ENE 24 28 13 15 1003.7 1002.8 0.0
24/12:30am 36.7 30.0 -1.3 9 18.7 ENE 24 28 13 15 1003.8 1002.9 0.0
24/12:00am 36.9 30.8 -2.7 8 19.1 ENE 20 24 11 13 1003.9 1003.0 0.0
 
Date/Time
CDT
Temp
°C
App
Temp
°C
Dew
Point
°C
Rel
Hum
%
Delta-T
°C
Wind Press
QNH
hPa
Press
MSL
hPa
Rain since
9am
mm
Dir  Spd
km/h
Gust
km/h
Spd
kts
Gust
kts
23/11:30pm 37.3 30.8 -2.4 8 19.3 ENE 22 28 12 15 1004.0 1003.1 0.0
23/11:00pm 37.6 30.8 -2.2 8 19.4 ENE 24 28 13 15 1003.9 1003.0 0.0
23/10:30pm 37.7 31.6 -2.2 8 19.5 ENE 20 28 11 15 1003.7 1002.8 0.0
23/10:00pm 37.3 31.8 -2.4 8 19.2 ENE 17 20 9 11 1003.5 1002.6 0.0
23/09:30pm 37.8 32.3 -2.1 8 19.6 ENE 17 20 9 11 1003.2 1002.3 0.0
23/09:00pm 38.8 33.2 -3.2 7 20.4 ENE 17 19 9 10 1003.0 1002.1 0.0
23/08:30pm 40.4 34.3 -2.0 7 21.2 ENE 20 26 11 14 1002.8 1001.9 0.0
23/08:00pm 41.3 35.3 -1.4 7 21.6 NE 20 30 11 16 1002.7 1001.8 0.0
23/07:30pm 41.6 35.3 -1.1 7 21.8 ENE 22 28 12 15 1002.4 1001.5 0.0
23/07:00pm 42.3 36.7 -2.7 6 22.4 E 17 26 9 14 1002.3 1001.4 0.0
23/06:30pm 42.9 36.4 -2.3 6 22.8 ENE 22 43 12 23 1002.1 1001.2 0.0
23/06:00pm 43.1 36.3 -2.2 6 22.9 NE 24 35 13 19 1002.3 1001.4 0.0
23/05:30pm 43.2 37.7 -2.1 6 23.0 ENE 17 28 9 15 1002.5 1001.6 0.0
23/05:00pm 42.6 37.3 -0.4 7 22.2 NE 17 32 9 17 1002.7 1001.8 0.0
23/04:49pm 43.3 36.5 -2.0 6 22.9 ENE 24 43 13 23 1002.7 1001.8 0.0
23/04:30pm 43.0 36.9 -2.2 6 22.9 ESE 20 33 11 18 1002.9 1002.0 0.0
23/04:00pm 43.0 36.2 -2.2 6 22.8 NE 24 39 13 21 1003.3 1002.4 0.0
23/03:30pm 42.9 37.1 -0.2 7 22.4 NE 20 30 11 16 1003.7 1002.8 0.0
23/03:00pm 42.7 36.9 -0.4 7 22.3 ENE 20 39 11 21 1004.0 1003.1 0.0
23/02:30pm 41.9 36.0 -0.9 7 21.9 NNE 20 37 11 20 1004.4 1003.5 0.0
23/02:00pm 42.6 36.0 -0.4 7 22.2 N 24 37 13 20 1004.8 1004.0 0.0
23/01:30pm 43.1 37.5 -0.1 7 22.5 NNE 19 32 10 17 1005.2 1004.4 0.0
23/01:00pm 41.8 35.5 -1.0 7 21.8 NE 22 37 12 20 1005.6 1004.8 0.0
23/12:30pm 41.6 34.5 -1.1 7 21.7 NNE 26 35 14 19 1006.2 1005.4 0.0
23/12:00pm 40.9 33.1 -3.7 6 21.8 NNE 28 39 15 21 1006.7 1005.9 0.0
23/11:30am 40.3 32.3 -2.1 7 21.1 N 30 39 16 21 1007.0 1006.2 0.0
23/11:00am 38.6 29.5 -3.3 7 20.2 N 35 44 19 24 1007.2 1006.4 0.0
23/10:30am 38.6 29.5 -3.3 7 20.2 NNE 35 44 19 24 1007.4 1006.6 0.0
23/10:00am 38.2 29.9 -1.8 8 19.7 NNE 32 39 17 21 1007.4 1006.6 0.0
23/09:30am 36.9 29.4 -1.1 9 18.8 NNE 28 35 15 19 1007.6 1006.8 0.0
23/09:27am 36.8 30.1 -1.2 9 18.7 NNE 24 35 13 19 1007.6 1006.8 0.0
23/09:00am 33.3 30.0 -1.1 11 16.6 E 6 9 3 5 1007.7 1006.9 0.0
23/08:30am 30.0 27.8 -1.4 13 14.7 CALM 0 6 0 3 1007.5 1006.7 0.0
23/08:00am 27.3 23.4 -1.6 15 13.2 S 9 9 5 5 1007.2 1006.4 0.0
23/07:30am 25.1 21.1 -2.5 16 12.2 S 9 9 5 5 1006.8 1006.0 0.0
23/07:00am 24.4 21.3 -3.0 16 11.9 SSE 4 7 2 4 1006.4 1005.6 0.0
23/06:30am 24.8 21.6 -3.6 15 12.3 SSE 4 11 2 6 1006.1 1005.3 0.0
23/06:00am 26.0 22.8 -3.5 14 12.9 ESE 4 11 2 6 1006.1 1005.3 0.0
23/05:30am 26.6 24.2 -3.1 14 13.2 CALM 0 0 0 0 1005.9 1005.1 0.0
23/05:00am 27.3 25.0 -2.5 14 13.4 CALM 0 4 0 2 1005.7 1004.9 0.0
23/04:30am 27.2 23.7 -2.6 14 13.4 SE 6 6 3 3 1005.5 1004.7 0.0
23/04:00am 27.3 23.6 -2.5 14 13.4 SSE 7 9 4 5 1005.6 1004.8 0.0
23/03:30am 28.2 25.8 -2.8 13 14.0 CALM 0 7 0 4 1005.6 1004.8 0.0
23/03:00am 28.9 26.6 -2.3 13 14.3 CALM 0 0 0 0 1005.5 1004.7 0.0
23/02:30am 30.8 27.1 -3.0 11 15.5 ENE 7 11 4 6 1005.8 1005.0 0.0
23/02:00am 30.1 26.5 -3.6 11 15.2 NE 6 7 3 4 1006.0 1005.2 0.0
23/01:30am 31.8 26.9 -3.5 10 16.2 NNE 13 17 7 9 1006.0 1005.2 0.0
23/01:00am 33.1 27.5 -2.6 10 16.8 NNE 17 22 9 12 1006.0 1005.2 0.0
23/12:30am 33.3 28.1 -2.4 10 16.9 N 15 19 8 10 1006.0 1005.2 0.0
23/12:00am 33.2 28.0 -2.5 10 16.8 NNE 15 19 8 10 1006.1 1005.3 0.0
 
Date/Time
CDT
Temp
°C
App
Temp
°C
Dew
Point
°C
Rel
Hum
%
Delta-T
°C
Wind Press
QNH
hPa
Press
MSL
hPa
Rain since
9am
mm
Dir  Spd
km/h
Gust
km/h
Spd
kts
Gust
kts
22/11:30pm 34.2 29.1 -1.7 10 17.3 NNE 15 19 8 10 1006.1 1005.3 0.0
22/11:00pm 34.5 29.8 -1.5 10 17.4 NNE 13 19 7 10 1006.0 1005.2 0.0
22/10:30pm 33.9 30.3 -2.0 10 17.2 NE 7 9 4 5 1005.9 1005.1 0.0
22/10:00pm 35.6 31.6 -2.1 9 18.2 NE 9 11 5 6 1005.9 1005.1 0.0
22/09:30pm 36.0 32.1 -1.8 9 18.4 ENE 9 11 5 6 1005.8 1005.0 0.0
22/09:00pm 37.0 32.8 -1.1 9 18.9 E 11 15 6 8 1005.7 1004.9 0.0
22/08:30pm 38.3 33.6 -1.7 8 19.8 ESE 13 15 7 8 1005.6 1004.8 0.0
22/08:00pm 39.8 35.6 -0.6 8 20.5 E 11 15 6 8 1005.5 1004.7 0.0
22/07:30pm 40.2 35.3 -0.3 8 20.7 ESE 15 24 8 13 1005.4 1004.6 0.0
22/07:00pm 40.7 35.5 0.0 8 20.9 ESE 17 26 9 14 1005.2 1004.4 0.0
22/06:30pm 40.7 36.6 0.0 8 21.0 E 11 15 6 8 1005.2 1004.4 0.0
22/06:00pm 41.1 36.3 0.3 8 21.2 SE 15 24 8 13 1005.1 1004.3 0.0
22/05:30pm 41.0 37.0 0.3 8 21.1 SE 11 17 6 9 1005.4 1004.6 0.0
22/05:00pm 40.8 38.1 0.1 8 20.9 SSW 4 9 2 5 1005.7 1004.9 0.0
22/04:30pm 41.7 36.2 0.8 8 21.4 ESE 19 33 10 18 1006.0 1005.2 0.0
22/04:00pm 40.5 34.9 -0.1 8 20.8 ESE 19 28 10 15 1006.4 1005.6 0.0
22/03:30pm 40.3 36.6 -0.3 8 20.8 NE 9 17 5 9 1006.6 1005.8 0.0
22/03:00pm 41.5 36.5 -1.2 7 21.7 NE 15 28 8 15 1007.0 1006.2 0.0
22/02:30pm 41.3 36.3 -1.4 7 21.6 SW 15 24 8 13 1007.3 1006.5 0.0
22/02:00pm 40.3 35.8 -0.3 8 20.7 ENE 13 22 7 12 1007.7 1006.9 0.0
22/01:30pm 39.8 34.9 -0.6 8 20.5 ENE 15 22 8 12 1008.2 1007.4 0.0
22/01:00pm 40.0 35.5 -0.5 8 20.6 NE 13 24 7 13 1008.5 1007.7 0.0
22/12:30pm 39.1 34.6 -2.9 7 20.5 NNE 11 22 6 12 1008.9 1008.1 0.0
22/12:00pm 38.5 33.6 -3.4 7 20.2 NNE 13 24 7 13 1009.3 1008.5 0.0
22/11:30am 37.3 31.9 -4.2 7 19.6 NNE 15 24 8 13 1009.5 1008.7 0.0
22/11:00am 36.6 31.4 -3.0 8 18.9 NNE 15 24 8 13 1009.7 1008.9 0.0
22/10:30am 35.8 29.7 -3.5 8 18.6 NNE 19 24 10 13 1009.9 1009.1 0.0
22/10:00am 35.5 31.9 -3.8 8 18.4 N 6 19 3 10 1010.1 1009.3 0.0
22/09:30am 33.6 30.0 -3.6 9 17.3 SSE 6 9 3 5 1009.8 1009.0 0.0
22/09:00am 31.9 28.3 -3.5 10 16.2 ESE 6 11 3 6 1009.6 1008.8 0.0
22/08:30am 29.2 24.7 -3.1 12 14.6 SSW 11 13 6 7 1009.5 1008.7 0.0
22/08:00am 27.4 24.2 -3.4 13 13.6 SW 4 15 2 8 1009.5 1008.7 0.0
22/07:30am 25.4 22.9 -4.0 14 12.7 CALM 0 0 0 0 1009.1 1008.3 0.0
22/07:00am 24.5 21.9 -4.7 14 12.3 CALM 0 0 0 0 1008.8 1008.0 0.0
22/06:30am 25.8 23.2 -4.7 13 13.0 CALM 0 0 0 0 1008.4 1007.6 0.0
22/06:00am 26.3 23.8 -4.3 13 13.2 CALM 0 6 0 3 1008.0 1007.2 0.0
22/05:30am 27.2 24.3 -4.6 12 13.8 E 2 9 1 5 1007.8 1007.0 0.0
22/05:00am 28.3 24.1 -3.8 12 14.2 NNE 9 11 5 6 1007.8 1007.0 0.0
22/04:30am 28.7 24.4 -4.6 11 14.6 NNE 9 13 5 7 1007.6 1006.8 0.0
22/04:00am 29.2 24.2 -4.3 11 14.8 NE 13 17 7 9 1007.7 1006.9 0.0
22/03:30am 29.2 23.1 -4.3 11 14.9 ENE 19 20 10 11 1007.3 1006.5 0.0
22/03:00am 28.9 23.1 -4.5 11 14.7 ENE 17 19 9 10 1007.4 1006.6 0.0
22/02:30am 30.2 24.1 -3.5 11 15.3 ENE 19 20 10 11 1007.4 1006.6 0.0
22/02:00am 30.1 24.4 -3.6 11 15.2 ENE 17 19 9 10 1007.5 1006.7 0.0
22/01:30am 30.2 24.9 -3.5 11 15.3 ENE 15 17 8 9 1008.1 1007.3 0.0
22/01:00am 31.2 25.5 -4.0 10 15.9 E 17 19 9 10 1007.9 1007.1 0.0
22/12:30am 31.9 26.2 -3.5 10 16.3 ENE 17 19 9 10 1008.2 1007.4 0.0
22/12:00am 32.8 26.5 -4.2 9 16.9 E 20 28 11 15 1008.3 1007.5 0.0
 
Date/Time
CDT
Temp
°C
App
Temp
°C
Dew
Point
°C
Rel
Hum
%
Delta-T
°C
Wind Press
QNH
hPa
Press
MSL
hPa
Rain since
9am
mm
Dir  Spd
km/h
Gust
km/h
Spd
kts
Gust
kts
21/11:30pm 33.5 26.5 -3.7 9 17.2 E 24 30 13 16 1008.5 1007.7 0.0
21/11:00pm 34.0 27.0 -3.3 9 17.4 E 24 28 13 15 1008.6 1007.8 0.0
21/10:30pm 34.3 28.1 -3.1 9 17.6 E 20 22 11 12 1008.5 1007.7 0.0
21/10:00pm 34.4 28.4 -3.0 9 17.6 E 19 24 10 13 1008.0 1007.2 0.0
21/09:30pm 34.2 28.6 -3.2 9 17.6 SE 17 19 9 10 1008.0 1007.2 0.0
21/09:00pm 35.7 30.0 -3.6 8 18.5 SE 17 24 9 13 1007.8 1007.0 0.0

Other formats

Comma delimited format used in spreadsheet applications
http://www.bom.gov.au/fwo/IDS60801/IDS60801.94476.axf

JavaScript Object Notation format (JSON) in row-major order
http://www.bom.gov.au/fwo/IDS60801/IDS60801.94476.json

Data quality

Most of these data are generated automatically and are frequently updated. Quality checks on data are not normally performed. It is possible for incorrect values to appear. Refer to information at About Latest Weather Observations and please check the disclaimer before using these data.